»·PEaware :: ASA677 ksan-kpsp

ASA677 :: ksan-kpsp

FLIGHT INFORMATION

Flight Status: Arrived
Operator:
Alaska Airlines
More flights by this operator :: More flights under this callsign
Pilot: Carlos L. (14329)
Aircraft: Unknown
(738)
More flights by this aircraft type
Origin: ksan San Diego Intl-Lindbergh
United States
Destination: kpsp Palm Springs Intl
United States
More flights between these airports :: More routes between these airports
Route: +BRDR7 JLI TRM
File this flight plan on PilotEdge
Remarks: EQUIPMENT / l
Altitude:
(Current/Filed)
15,000ft
Speed:
(Current/Filed)
390kts
Departed: 18-Feb-17 06:51 PM
Arrived: 18-Feb-17 07:23 PM
Distance/Time
Traveled:
74nm/0:32
Distance/Time
To Go:
Arrived

Flight Plot

Page will automatically refresh every two minutes.


Map Options




Map Legend


Flown Route
Filed Route
Departure Airport
Arrival Airport
Navaid (VOR, NDB)
Fix

Horizontal Profiles

Position Reports

Time Latitude Longitude Heading Altitude Ground
Speed
18-Feb-17 18:15 32.733722 -117.198960 148 26ft 0kts
18-Feb-17 18:16 32.733722 -117.198959 148 26ft 0kts
18-Feb-17 18:18 32.733722 -117.198959 148 26ft 0kts
18-Feb-17 18:18 32.733722 -117.198959 148 26ft 0kts
18-Feb-17 18:19 32.733722 -117.198959 148 26ft 0kts
18-Feb-17 18:20 32.733722 -117.198959 148 26ft 0kts
18-Feb-17 18:21 32.733722 -117.198959 148 26ft 0kts
18-Feb-17 18:22 32.733722 -117.198959 148 26ft 0kts
18-Feb-17 18:23 32.733722 -117.198959 148 26ft 0kts
18-Feb-17 18:24 32.733722 -117.198959 148 26ft 0kts
18-Feb-17 18:25 32.733722 -117.198959 148 26ft 0kts
18-Feb-17 18:26 32.733722 -117.198959 148 26ft 0kts
18-Feb-17 18:27 32.733722 -117.198959 148 26ft 0kts
18-Feb-17 18:28 32.733722 -117.198959 148 26ft 0kts
18-Feb-17 18:29 32.733722 -117.198960 148 26ft 0kts
18-Feb-17 18:30 32.733722 -117.198960 148 26ft 0kts
18-Feb-17 18:31 32.733722 -117.198960 148 26ft 0kts
18-Feb-17 18:32 32.733722 -117.198960 148 26ft 0kts
18-Feb-17 18:33 32.733722 -117.198960 148 26ft 0kts
18-Feb-17 18:34 32.733722 -117.198960 148 26ft 0kts
18-Feb-17 18:35 32.733722 -117.198960 148 26ft 0kts
18-Feb-17 18:36 32.733722 -117.198960 148 26ft 0kts
18-Feb-17 18:37 32.733876 -117.199202 148 26ft 0kts
18-Feb-17 18:38 32.734051 -117.199437 60 26ft 0kts
18-Feb-17 18:39 32.734051 -117.199437 60 26ft 0kts
18-Feb-17 18:40 32.734051 -117.199437 60 26ft 0kts
18-Feb-17 18:41 32.734051 -117.199437 60 26ft 0kts
18-Feb-17 18:42 32.734051 -117.199437 60 26ft 0kts
18-Feb-17 18:43 32.734048 -117.199442 60 26ft 0kts
18-Feb-17 18:44 32.734485 -117.197692 103 26ft 11kts
18-Feb-17 18:45 32.733768 -117.194795 105 26ft 14kts
18-Feb-17 18:46 32.732570 -117.189794 107 26ft 15kts
18-Feb-17 18:47 32.731585 -117.185778 106 26ft 8kts
18-Feb-17 18:48 32.730682 -117.182071 105 26ft 17kts
18-Feb-17 18:49 32.729500 -117.176880 82 26ft 6kts
18-Feb-17 18:50 32.729523 -117.176764 75 26ft 2kts
18-Feb-17 18:51 32.731091 -117.179625 285 26ft 52kts
18-Feb-17 18:52 32.744945 -117.231953 286 1543ft 201kts
18-Feb-17 18:53 32.759965 -117.291435 248 2033ft 225kts
18-Feb-17 18:54 32.725748 -117.332713 172 4059ft 215kts
18-Feb-17 18:55 32.701643 -117.276244 98 6330ft 222kts
18-Feb-17 18:56 32.661898 -117.216706 135 7784ft 267kts
18-Feb-17 18:57 32.617419 -117.143405 94 8946ft 300kts
18-Feb-17 18:58 32.611366 -117.044011 89 11605ft 309kts
18-Feb-17 18:59 32.615128 -116.935463 83 12764ft 331kts
18-Feb-17 19:00 32.625371 -116.822859 81 14656ft 352kts
18-Feb-17 19:01 32.685896 -116.750886 13 14881ft 332kts
18-Feb-17 19:02 32.774207 -116.719564 13 14870ft 332kts
18-Feb-17 19:03 32.865483 -116.686168 17 14763ft 382kts
18-Feb-17 19:04 32.959381 -116.627264 11 14787ft 379kts
18-Feb-17 19:05 33.057763 -116.615370 359 15177ft 332kts
18-Feb-17 19:06 33.144020 -116.589595 15 15198ft 348kts
18-Feb-17 19:07 33.218596 -116.525557 42 14960ft 314kts
18-Feb-17 19:08 33.279288 -116.458176 36 13700ft 301kts
18-Feb-17 19:09 33.344177 -116.394736 32 11908ft 300kts
18-Feb-17 19:10 33.411921 -116.340991 32 10140ft 294kts
18-Feb-17 19:11 33.477562 -116.287165 34 8967ft 269kts
18-Feb-17 19:12 33.539525 -116.233117 35 8895ft 280kts
18-Feb-17 19:13 33.593541 -116.170977 81 8873ft 279kts
18-Feb-17 19:14 33.584606 -116.081016 50 7732ft 291kts
18-Feb-17 19:15 33.652458 -116.089623 307 6460ft 274kts
18-Feb-17 19:16 33.664544 -116.175476 257 5515ft 245kts
18-Feb-17 19:17 33.640997 -116.252287 256 3883ft 233kts
18-Feb-17 19:18 33.667666 -116.321205 315 4798ft 212kts
18-Feb-17 19:19 33.705224 -116.372270 308 3177ft 194kts
18-Feb-17 19:20 33.741244 -116.416828 316 1621ft 186kts
18-Feb-17 19:21 33.775239 -116.460015 316 1318ft 173kts
18-Feb-17 19:22 33.812521 -116.492589 324 731ft 160kts
18-Feb-17 19:23 33.834457 -116.510479 81 486ft 21kts
18-Feb-17 19:24 33.834182 -116.509974 141 486ft 0kts
18-Feb-17 19:25 33.833662 -116.509552 145 486ft 16kts
18-Feb-17 19:26 33.831363 -116.505311 140 486ft 14kts

Navigation Log

Ident Type
Flight plan parsing failed, navigation log unavailable